Terminal Aerodrome Forecast
Issued by NWS Quad Cities IA IL

Home | Current Version | Previous Version | Text Only | Print | Product List | Glossary On
Versions: 1 2 3 4 5 6 7 8 9 10 11 12 13 14 15 16 17 18
000
FTUS43 KDVN 211700
TAFDBQ
TAF
KDBQ 211730Z 2118/2218 26012KT P6SM SCT050 BKN100
      TEMPO 2118/2121 6SM -RA OVC050
     FM212100 30011KT P6SM VCSH OVC025
     FM220000 33013G17KT P6SM SCT040 BKN070
     FM220300 34011KT P6SM FEW070
     FM221500 35012KT P6SM SKC=

USA.gov is the U.S. government's official web portal to all federal, state and local government web resources and services.